Time;durP1;ratioP1;P1;durP2;ratioP2;P2;SDS_P1;SDS_P2;PMS_P1;PMS_P2;Temp;Humidity;BMP_temperature;BMP_pressure;BME280_temperature;BME280_humidity;BME280_pressure;Samples;Min_cycle;Max_cycle;Signal;HPM_P1;HPM_P2
2021/09/11 00:00:49;;;;;;;24.60;13.63;;;19.00;97.30;;;;;;5054429;28;20179;-76
2021/09/11 00:03:14;;;;;;;18.50;12.13;;;19.00;97.30;;;;;;5053979;28;20238;-75
2021/09/11 00:05:40;;;;;;;21.63;13.13;;;18.90;97.30;;;;;;5053973;28;20227;-76
2021/09/11 00:08:06;;;;;;;24.33;13.77;;;19.00;97.30;;;;;;5054532;28;20200;-76
2021/09/11 00:10:32;;;;;;;20.57;13.47;;;18.90;97.30;;;;;;5053853;28;20802;-75
2021/09/11 00:12:58;;;;;;;23.03;12.90;;;18.90;97.30;;;;;;5055377;28;20452;-76
2021/09/11 00:15:31;;;;;;;20.90;13.30;;;18.90;97.30;;;;;;5054491;28;20422;-76
2021/09/11 00:17:57;;;;;;;20.67;12.13;;;18.90;97.30;;;;;;5054397;28;20419;-76
2021/09/11 00:20:23;;;;;;;23.07;12.80;;;18.90;97.30;;;;;;5053860;28;21004;-76
2021/09/11 00:22:49;;;;;;;22.13;12.83;;;18.80;97.30;;;;;;5054231;28;20458;-77
2021/09/11 00:25:15;;;;;;;20.57;12.10;;;18.80;97.30;;;;;;5055461;28;20421;-76
2021/09/11 00:27:41;;;;;;;21.53;12.47;;;18.80;97.30;;;;;;5055515;28;20528;-76
2021/09/11 00:30:07;;;;;;;32.57;16.20;;;18.80;97.30;;;;;;5054114;28;20454;-75
2021/09/11 00:32:33;;;;;;;20.33;13.27;;;18.70;97.30;;;;;;5055230;28;20192;-76
2021/09/11 00:34:59;;;;;;;19.23;12.40;;;18.70;97.30;;;;;;5074051;28;20249;-75
2021/09/11 00:37:24;;;;;;;19.73;12.33;;;18.70;97.30;;;;;;5073881;28;20405;-75
2021/09/11 00:39:50;;;;;;;16.77;11.40;;;18.70;97.30;;;;;;5066639;28;20184;-75
2021/09/11 00:42:16;;;;;;;22.40;12.90;;;18.70;97.30;;;;;;5053832;28;20560;-75
2021/09/11 00:44:41;;;;;;;21.13;11.87;;;18.70;97.30;;;;;;5053968;28;20260;-76
2021/09/11 00:47:07;;;;;;;23.00;11.87;;;18.60;97.30;;;;;;5055319;28;20257;-76
2021/09/11 00:49:32;;;;;;;21.33;11.50;;;18.60;97.30;;;;;;5054257;28;20183;-76
2021/09/11 00:51:58;;;;;;;23.40;12.73;;;18.50;97.30;;;;;;5055050;28;20312;-76
2021/09/11 00:54:24;;;;;;;23.73;11.80;;;18.50;97.30;;;;;;5054017;28;20176;-75
2021/09/11 00:56:51;;;;;;;17.77;11.40;;;18.50;97.30;;;;;;5054293;28;20271;-76
2021/09/11 00:59:16;;;;;;;18.23;12.20;;;18.50;97.30;;;;;;5053743;28;20183;-75
2021/09/11 01:01:42;;;;;;;19.77;11.67;;;18.50;97.30;;;;;;5055428;28;20428;-76
2021/09/11 01:04:08;;;;;;;16.87;11.33;;;18.40;97.30;;;;;;5054313;28;20227;-76
2021/09/11 01:06:34;;;;;;;18.47;11.93;;;18.40;97.30;;;;;;5053901;28;20176;-74
2021/09/11 01:09:00;;;;;;;21.23;12.20;;;18.40;97.30;;;;;;5051223;28;20275;-76
2021/09/11 01:11:26;;;;;;;20.53;12.37;;;18.30;97.30;;;;;;5033580;28;20465;-76
2021/09/11 01:13:52;;;;;;;21.10;12.70;;;18.30;97.30;;;;;;5033563;28;20539;-76
2021/09/11 01:16:17;;;;;;;20.27;12.43;;;18.30;97.30;;;;;;5033874;28;20191;-76
2021/09/11 01:18:44;;;;;;;25.30;13.20;;;18.30;97.30;;;;;;5033939;28;20415;-76
2021/09/11 01:21:10;;;;;;;23.80;12.33;;;18.20;97.30;;;;;;5037878;28;20184;-76
2021/09/11 01:23:39;;;;;;;20.80;11.90;;;18.20;97.30;;;;;;5037930;28;20570;-76
2021/09/11 01:26:04;;;;;;;20.60;12.13;;;18.20;97.30;;;;;;5038002;28;20192;-76
2021/09/11 01:28:30;;;;;;;21.87;11.83;;;18.20;97.30;;;;;;5037056;28;20422;-76
2021/09/11 01:30:56;;;;;;;17.80;11.80;;;18.20;97.30;;;;;;5037981;28;20194;-76
2021/09/11 01:33:23;;;;;;;20.97;12.40;;;18.20;97.30;;;;;;5036670;28;20204;-76
2021/09/11 01:35:49;;;;;;;20.90;11.47;;;18.20;97.30;;;;;;5037472;28;20199;-76
2021/09/11 01:38:14;;;;;;;20.70;10.53;;;18.20;97.30;;;;;;5037586;28;20445;-76
2021/09/11 01:40:40;;;;;;;20.10;11.90;;;18.20;97.30;;;;;;5049556;28;20429;-76
2021/09/11 01:43:05;;;;;;;19.67;12.10;;;18.20;97.30;;;;;;5069100;28;20214;-76
2021/09/11 01:45:31;;;;;;;20.77;11.10;;;18.20;97.30;;;;;;5076767;28;20568;-76
2021/09/11 01:47:57;;;;;;;21.53;11.63;;;18.20;97.30;;;;;;5076821;28;20554;-76
2021/09/11 01:50:22;;;;;;;24.07;12.20;;;18.10;97.30;;;;;;5076611;28;20179;-76
2021/09/11 01:52:50;;;;;;;21.10;11.60;;;18.10;97.30;;;;;;5076636;28;20195;-76
2021/09/11 01:55:16;;;;;;;25.60;11.60;;;18.10;97.30;;;;;;5076867;28;20175;-75
2021/09/11 01:57:44;;;;;;;20.23;11.67;;;18.10;97.30;;;;;;5076296;28;20814;-76
2021/09/11 02:00:18;;;;;;;18.90;11.70;;;18.10;97.30;;;;;;5073995;28;20471;-76
2021/09/11 02:02:44;;;;;;;18.37;9.97;;;18.10;97.30;;;;;;5056813;28;20481;-76
2021/09/11 02:05:11;;;;;;;23.50;11.60;;;18.10;97.30;;;;;;5056974;28;20418;-76
2021/09/11 02:07:37;;;;;;;19.20;10.30;;;18.10;97.30;;;;;;5057165;28;20421;-76
2021/09/11 02:10:08;;;;;;;23.50;11.83;;;18.10;97.30;;;;;;5058365;28;20904;-77
2021/09/11 02:12:34;;;;;;;18.00;11.23;;;18.10;97.30;;;;;;5057803;28;20442;-77
2021/09/11 02:14:59;;;;;;;19.53;12.30;;;18.10;97.30;;;;;;5058181;28;20440;-78
2021/09/11 02:17:25;;;;;;;21.20;12.90;;;18.10;97.30;;;;;;5057220;28;20275;-77
2021/09/11 02:19:51;;;;;;;19.70;10.13;;;18.10;97.30;;;;;;5057348;28;20791;-77
2021/09/11 02:22:17;;;;;;;24.00;11.23;;;18.10;97.30;;;;;;5057521;28;20249;-77
2021/09/11 02:24:42;;;;;;;16.13;11.03;;;18.10;97.30;;;;;;5055978;28;20200;-76
2021/09/11 02:27:08;;;;;;;19.93;11.73;;;18.10;97.30;;;;;;5056359;28;20191;-76
2021/09/11 02:29:35;;;;;;;17.47;11.07;;;18.10;97.30;;;;;;5057649;28;20175;-78
2021/09/11 02:32:07;;;;;;;23.30;12.70;;;18.10;97.30;;;;;;5038930;28;20816;-78
2021/09/11 02:34:33;;;;;;;19.17;11.67;;;18.10;97.30;;;;;;5036015;28;20419;-75
2021/09/11 02:36:59;;;;;;;21.80;12.33;;;18.10;97.30;;;;;;5036345;28;20462;-75
2021/09/11 02:39:25;;;;;;;22.87;12.73;;;18.10;97.30;;;;;;5036804;28;20426;-75
2021/09/11 02:41:50;;;;;;;20.30;12.43;;;18.10;97.30;;;;;;5036940;28;20693;-75
2021/09/11 02:44:16;;;;;;;22.17;13.53;;;18.10;97.30;;;;;;5036118;28;20670;-75
2021/09/11 02:46:42;;;;;;;24.07;12.50;;;18.10;97.30;;;;;;5035914;28;20318;-76
2021/09/11 02:49:07;;;;;;;24.17;13.43;;;18.10;97.30;;;;;;5036628;28;20180;-75
2021/09/11 02:51:33;;;;;;;26.10;13.10;;;18.20;97.30;;;;;;5037180;28;20169;-76
2021/09/11 02:53:59;;;;;;;19.70;12.20;;;18.20;97.30;;;;;;5036064;28;20625;-75
2021/09/11 02:56:24;;;;;;;21.17;12.40;;;18.20;97.30;;;;;;5036144;28;20580;-76
2021/09/11 02:58:50;;;;;;;23.93;13.30;;;18.20;97.30;;;;;;5036269;28;20522;-77
2021/09/11 03:01:15;;;;;;;21.87;12.63;;;18.30;97.30;;;;;;5046333;28;20172;-76
2021/09/11 03:03:41;;;;;;;21.37;12.83;;;18.30;97.30;;;;;;5055265;28;20318;-75
2021/09/11 03:06:07;;;;;;;21.63;13.00;;;18.30;97.30;;;;;;5055803;28;20607;-76
2021/09/11 03:08:32;;;;;;;19.57;11.97;;;18.30;97.30;;;;;;5055514;28;20176;-79
2021/09/11 03:10:58;;;;;;;23.87;12.70;;;18.40;97.30;;;;;;5056561;28;20168;-76
2021/09/11 03:13:23;;;;;;;22.70;12.37;;;18.40;97.30;;;;;;5056190;28;20198;-76
2021/09/11 03:15:50;;;;;;;20.37;12.83;;;18.40;97.30;;;;;;5055095;28;20191;-76
2021/09/11 03:18:15;;;;;;;20.47;11.87;;;18.40;97.30;;;;;;5055445;28;20179;-77
2021/09/11 03:20:44;;;;;;;20.60;11.60;;;18.40;97.30;;;;;;5055671;28;20807;-76
2021/09/11 03:23:09;;;;;;;19.50;12.00;;;18.40;97.30;;;;;;5055510;28;20215;-75
2021/09/11 03:25:35;;;;;;;20.83;12.27;;;18.40;97.30;;;;;;5056947;28;20415;-76
2021/09/11 03:28:00;;;;;;;19.70;12.17;;;18.40;97.30;;;;;;5055154;28;20179;-76
2021/09/11 03:30:26;;;;;;;20.33;11.97;;;18.50;97.30;;;;;;5054926;28;20618;-75
2021/09/11 03:32:51;;;;;;;21.10;12.50;;;18.50;97.30;;;;;;5051401;28;20207;-76
2021/09/11 03:35:17;;;;;;;20.50;12.10;;;18.50;97.30;;;;;;5034783;28;20176;-75
2021/09/11 03:37:43;;;;;;;16.97;11.83;;;18.50;97.30;;;;;;5035504;28;20195;-77
2021/09/11 03:40:09;;;;;;;20.73;12.30;;;18.50;97.30;;;;;;5034299;28;20180;-75
2021/09/11 03:42:35;;;;;;;19.40;11.70;;;18.50;97.30;;;;;;5035117;28;20214;-75
2021/09/11 03:45:01;;;;;;;21.03;11.43;;;18.50;97.30;;;;;;5035850;28;20999;-75
2021/09/11 03:47:26;;;;;;;18.53;10.70;;;18.50;97.30;;;;;;5035958;28;20418;-77
2021/09/11 03:49:52;;;;;;;17.60;11.03;;;18.50;97.30;;;;;;5034128;28;20638;-75
2021/09/11 03:52:18;;;;;;;19.70;11.70;;;18.50;97.30;;;;;;5033734;28;20196;-75
2021/09/11 03:54:43;;;;;;;16.67;9.90;;;18.50;97.30;;;;;;5034667;28;20238;-75
2021/09/11 03:57:09;;;;;;;16.70;10.87;;;18.50;97.30;;;;;;5034046;28;20188;-76
2021/09/11 03:59:34;;;;;;;18.97;11.23;;;18.50;97.30;;;;;;5034281;28;20187;-75
2021/09/11 04:02:00;;;;;;;23.80;10.87;;;18.60;97.30;;;;;;5033800;28;20216;-75
2021/09/11 04:04:25;;;;;;;17.10;10.67;;;18.60;97.30;;;;;;5034192;28;20959;-76
2021/09/11 04:06:51;;;;;;;18.83;11.90;;;18.60;97.30;;;;;;5034350;28;20603;-75
2021/09/11 04:09:17;;;;;;;20.00;11.60;;;18.60;97.30;;;;;;5034785;28;20180;-76
2021/09/11 04:11:42;;;;;;;19.43;11.73;;;18.70;97.30;;;;;;5033691;28;20179;-76
2021/09/11 04:14:08;;;;;;;16.30;11.07;;;18.70;97.30;;;;;;5035129;28;20177;-75
2021/09/11 04:16:34;;;;;;;19.93;12.33;;;18.70;97.30;;;;;;5034164;28;20195;-75
2021/09/11 04:18:59;;;;;;;17.37;10.47;;;18.70;97.30;;;;;;5040149;28;20199;-75
2021/09/11 04:21:25;;;;;;;18.50;11.23;;;18.70;97.30;;;;;;5054626;28;20172;-76
2021/09/11 04:23:50;;;;;;;16.70;10.23;;;18.70;97.30;;;;;;5053831;28;20806;-78
2021/09/11 04:26:16;;;;;;;19.20;11.20;;;18.70;97.30;;;;;;5054486;28;20254;-75
2021/09/11 04:28:41;;;;;;;19.20;12.27;;;18.70;97.30;;;;;;5053539;28;20395;-76
2021/09/11 04:31:07;;;;;;;23.13;12.77;;;18.70;97.30;;;;;;5054851;28;20172;-75
2021/09/11 04:33:32;;;;;;;21.17;12.77;;;18.70;97.30;;;;;;5054091;28;20200;-76
2021/09/11 04:35:58;;;;;;;22.40;12.70;;;18.60;97.30;;;;;;5053113;28;20210;-75
2021/09/11 04:38:24;;;;;;;23.20;12.90;;;18.60;97.30;;;;;;5039822;28;20215;-76
2021/09/11 04:40:50;;;;;;;21.87;12.60;;;18.60;97.30;;;;;;5033676;28;20544;-78
2021/09/11 04:43:16;;;;;;;25.80;13.07;;;18.60;97.30;;;;;;5035246;28;20215;-77
2021/09/11 04:45:44;;;;;;;22.83;13.50;;;18.60;97.30;;;;;;5040489;28;20180;-77
2021/09/11 04:48:10;;;;;;;19.17;11.47;;;18.60;97.30;;;;;;5032911;28;20999;-77
2021/09/11 04:50:36;;;;;;;23.10;12.33;;;18.60;97.30;;;;;;5049997;28;20407;-78
2021/09/11 04:53:01;;;;;;;22.70;12.10;;;18.60;97.30;;;;;;5047718;28;20978;-77
2021/09/11 04:55:30;;;;;;;22.17;12.37;;;18.60;97.30;;;;;;5039694;28;20173;-77
2021/09/11 04:57:55;;;;;;;22.23;13.00;;;18.60;97.30;;;;;;5038882;28;20528;-79
2021/09/11 05:00:21;;;;;;;23.13;13.40;;;18.60;97.30;;;;;;5043159;28;20434;-76
2021/09/11 05:02:47;;;;;;;21.47;13.07;;;18.60;97.30;;;;;;5040400;28;20236;-78
2021/09/11 05:05:13;;;;;;;23.80;13.60;;;18.60;97.30;;;;;;5037896;28;20287;-77
2021/09/11 05:07:39;;;;;;;24.07;13.97;;;18.70;97.30;;;;;;5042126;28;20502;-78
2021/09/11 05:10:06;;;;;;;24.73;13.70;;;18.70;97.30;;;;;;5038573;28;20176;-78
2021/09/11 05:12:32;;;;;;;22.47;12.70;;;18.70;97.30;;;;;;5042416;28;21021;-78
2021/09/11 05:14:58;;;;;;;23.77;13.60;;;18.70;97.30;;;;;;5041484;28;20423;-77
2021/09/11 05:17:23;;;;;;;20.77;13.23;;;18.70;97.30;;;;;;5038607;28;20445;-76
2021/09/11 05:19:49;;;;;;;21.70;13.40;;;18.70;97.30;;;;;;5035972;28;20581;-77
2021/09/11 05:22:15;;;;;;;22.90;13.13;;;18.70;97.30;;;;;;5038246;28;20195;-77
2021/09/11 05:24:42;;;;;;;25.70;13.77;;;18.80;97.30;;;;;;5038537;28;20416;-77
2021/09/11 05:27:08;;;;;;;25.40;14.40;;;18.80;97.30;;;;;;5040087;28;20175;-79
2021/09/11 05:29:34;;;;;;;25.80;14.10;;;18.80;97.30;;;;;;5045509;28;20426;-78
2021/09/11 05:31:59;;;;;;;26.53;13.67;;;18.80;97.30;;;;;;5033264;28;20431;-77
2021/09/11 05:34:25;;;;;;;20.77;13.37;;;18.90;97.30;;;;;;5039459;28;20183;-79
2021/09/11 05:36:50;;;;;;;22.00;13.00;;;18.90;97.30;;;;;;5040943;28;20220;-79
2021/09/11 05:39:17;;;;;;;21.10;13.07;;;18.90;97.30;;;;;;5038480;28;20200;-77
2021/09/11 05:41:43;;;;;;;24.23;13.73;;;18.90;97.30;;;;;;5037647;28;20719;-78
2021/09/11 05:44:09;;;;;;;22.97;13.30;;;18.90;97.30;;;;;;5042943;28;20461;-76
2021/09/11 05:46:34;;;;;;;23.90;13.77;;;19.00;97.30;;;;;;5039406;28;20623;-77
2021/09/11 05:49:00;;;;;;;23.27;13.53;;;19.00;97.30;;;;;;5041544;28;20415;-80
2021/09/11 05:51:26;;;;;;;25.30;14.60;;;19.00;97.30;;;;;;5037727;28;20304;-77
2021/09/11 05:53:51;;;;;;;26.63;12.70;;;19.10;97.30;;;;;;5037397;28;20227;-78
2021/09/11 05:56:17;;;;;;;20.03;12.87;;;19.10;97.30;;;;;;5041777;28;20669;-78
2021/09/11 05:58:43;;;;;;;22.07;13.50;;;19.10;97.30;;;;;;5041892;28;20177;-77
2021/09/11 06:01:08;;;;;;;22.27;12.13;;;19.10;97.30;;;;;;5043404;28;20861;-76
2021/09/11 06:03:34;;;;;;;23.33;13.60;;;19.10;97.30;;;;;;5038055;28;20717;-76
2021/09/11 06:06:00;;;;;;;20.63;12.43;;;19.10;97.30;;;;;;5044505;28;20182;-79
2021/09/11 06:08:26;;;;;;;19.33;12.83;;;19.20;97.30;;;;;;5059636;28;20172;-79
2021/09/11 06:10:52;;;;;;;23.83;13.63;;;19.20;97.30;;;;;;5051259;28;20519;-77
2021/09/11 06:13:18;;;;;;;21.90;12.27;;;19.20;97.30;;;;;;5055799;28;20298;-78
2021/09/11 06:15:43;;;;;;;24.50;12.43;;;19.20;97.30;;;;;;5045520;28;20180;-78
2021/09/11 06:18:09;;;;;;;17.47;12.03;;;19.20;97.30;;;;;;5046972;28;20423;-77
2021/09/11 06:20:35;;;;;;;23.00;11.63;;;19.30;97.30;;;;;;5049311;28;20227;-79
2021/09/11 06:23:01;;;;;;;16.83;10.63;;;19.30;97.30;;;;;;5061979;28;20442;-76
2021/09/11 06:25:26;;;;;;;23.20;12.23;;;19.30;97.30;;;;;;5049256;28;20427;-75
2021/09/11 06:27:54;;;;;;;19.77;11.17;;;19.40;97.30;;;;;;5074361;28;20179;-76
2021/09/11 06:30:21;;;;;;;17.33;10.57;;;19.40;97.30;;;;;;5072387;28;20161;-76
2021/09/11 06:32:47;;;;;;;17.70;10.87;;;19.40;97.30;;;;;;5054374;28;20923;-77
2021/09/11 06:35:12;;;;;;;20.00;12.30;;;19.40;97.30;;;;;;5053526;28;20445;-76
2021/09/11 06:37:38;;;;;;;25.30;15.73;;;19.50;97.30;;;;;;5053877;28;20272;-77
2021/09/11 06:40:04;;;;;;;33.90;18.80;;;19.50;97.30;;;;;;5053914;28;20252;-77
2021/09/11 06:42:30;;;;;;;31.30;16.97;;;19.50;97.30;;;;;;5053574;28;20231;-76
2021/09/11 06:44:55;;;;;;;30.50;16.63;;;19.60;97.30;;;;;;5053034;28;20516;-77
2021/09/11 06:47:21;;;;;;;23.80;14.27;;;19.60;97.30;;;;;;5053178;28;20200;-76
2021/09/11 06:49:47;;;;;;;24.40;14.87;;;19.60;97.30;;;;;;5038108;28;20226;-76
2021/09/11 06:52:12;;;;;;;23.07;13.63;;;19.60;97.30;;;;;;5051228;28;20200;-77
2021/09/11 06:54:38;;;;;;;19.50;11.20;;;19.70;97.30;;;;;;5063543;28;20172;-76
2021/09/11 06:57:04;;;;;;;19.23;11.70;;;19.70;97.30;;;;;;5055938;28;20164;-77
2021/09/11 06:59:29;;;;;;;18.83;12.27;;;19.80;97.30;;;;;;5065950;28;20641;-76
2021/09/11 07:01:56;;;;;;;18.00;11.47;;;19.80;97.30;;;;;;5054171;28;20206;-77
2021/09/11 07:04:22;;;;;;;19.47;12.53;;;19.80;97.30;;;;;;5054123;28;20217;-77
2021/09/11 07:06:47;;;;;;;15.50;10.00;;;19.80;97.30;;;;;;5053954;28;20414;-77
2021/09/11 07:09:13;;;;;;;15.27;9.83;;;19.80;97.30;;;;;;5052949;28;20273;-77
2021/09/11 07:11:39;;;;;;;15.80;9.30;;;19.80;97.30;;;;;;5052611;28;20172;-77
2021/09/11 07:14:04;;;;;;;16.23;9.27;;;19.80;97.30;;;;;;5052763;28;20522;-77
2021/09/11 07:16:30;;;;;;;15.10;9.20;;;19.80;97.30;;;;;;5039443;28;20208;-77
2021/09/11 07:18:55;;;;;;;15.60;9.20;;;19.90;97.30;;;;;;5034421;28;20717;-77
2021/09/11 07:21:21;;;;;;;15.90;9.57;;;19.90;97.30;;;;;;5040587;28;20192;-77
2021/09/11 07:23:47;;;;;;;15.30;9.37;;;19.90;97.30;;;;;;5053831;28;20231;-77
2021/09/11 07:26:18;;;;;;;16.27;10.03;;;19.90;97.30;;;;;;5054037;28;20169;-77
2021/09/11 07:28:48;;;;;;;14.23;8.90;;;19.90;97.30;;;;;;5053261;28;20172;-76
2021/09/11 07:31:14;;;;;;;13.30;9.00;;;19.90;97.30;;;;;;5039965;28;20434;-77
2021/09/11 07:33:40;;;;;;;15.80;9.10;;;19.90;97.30;;;;;;5034142;28;20960;-77
2021/09/11 07:36:06;;;;;;;12.43;8.57;;;19.90;97.30;;;;;;5033419;28;20419;-77
2021/09/11 07:38:33;;;;;;;14.93;9.87;;;19.90;97.30;;;;;;5033342;28;20191;-77
2021/09/11 07:40:58;;;;;;;13.67;8.87;;;19.90;97.30;;;;;;5033277;28;20419;-78
2021/09/11 07:43:24;;;;;;;18.83;10.70;;;19.90;97.30;;;;;;5033110;28;20457;-77
2021/09/11 07:45:49;;;;;;;16.80;9.47;;;19.90;97.30;;;;;;5034321;28;20172;-77
2021/09/11 07:48:15;;;;;;;12.40;9.10;;;19.90;97.30;;;;;;5039232;28;20172;-77
2021/09/11 07:50:41;;;;;;;14.07;9.07;;;19.90;97.30;;;;;;5053016;28;20188;-77
2021/09/11 07:53:06;;;;;;;14.70;8.93;;;20.00;97.30;;;;;;5053017;28;20196;-78
2021/09/11 07:55:33;;;;;;;14.90;9.20;;;20.00;97.30;;;;;;5038993;28;20385;-77
2021/09/11 07:57:59;;;;;;;12.90;8.40;;;20.00;97.30;;;;;;5053555;28;20692;-77
2021/09/11 08:00:25;;;;;;;13.10;8.27;;;20.10;97.30;;;;;;5050616;28;20925;-77
2021/09/11 08:02:51;;;;;;;18.63;10.20;;;20.10;97.30;;;;;;5034268;28;20540;-77
2021/09/11 08:05:17;;;;;;;16.90;9.70;;;20.10;97.30;;;;;;5032553;28;20514;-77
2021/09/11 08:07:42;;;;;;;13.23;8.13;;;20.20;97.30;;;;;;5044982;28;20678;-76
2021/09/11 08:10:09;;;;;;;13.57;8.73;;;20.20;97.30;;;;;;5050663;28;20260;-79
2021/09/11 08:12:35;;;;;;;12.23;8.60;;;20.20;97.30;;;;;;5041721;28;20196;-77
2021/09/11 08:15:01;;;;;;;15.37;9.13;;;20.20;97.30;;;;;;5053997;28;20413;-77
2021/09/11 08:17:27;;;;;;;12.93;8.60;;;20.30;97.30;;;;;;5044772;28;20188;-78
2021/09/11 08:19:52;;;;;;;15.90;7.90;;;20.30;97.30;;;;;;5044246;28;20433;-77
2021/09/11 08:22:18;;;;;;;13.93;8.33;;;20.30;97.30;;;;;;5048779;28;20195;-76
2021/09/11 08:24:44;;;;;;;13.03;8.60;;;20.40;97.30;;;;;;5050858;28;20241;-77
2021/09/11 08:27:09;;;;;;;15.20;8.43;;;20.40;97.30;;;;;;5052490;28;20174;-77
2021/09/11 08:29:38;;;;;;;11.23;7.43;;;20.40;97.30;;;;;;5049884;28;20183;-78
2021/09/11 08:32:04;;;;;;;14.30;8.50;;;20.40;97.30;;;;;;5052493;28;20199;-77
2021/09/11 08:34:30;;;;;;;14.53;8.90;;;20.50;97.30;;;;;;5052286;28;20423;-77
2021/09/11 08:36:55;;;;;;;13.80;8.50;;;20.60;97.30;;;;;;5041038;28;20538;-77
2021/09/11 08:39:24;;;;;;;22.40;8.37;;;20.70;97.30;;;;;;5051461;28;20658;-77
2021/09/11 08:41:50;;;;;;;14.30;8.60;;;20.80;97.30;;;;;;5050613;28;20176;-77
2021/09/11 08:44:16;;;;;;;14.10;7.97;;;20.90;97.30;;;;;;5051574;28;20464;-77
2021/09/11 08:46:42;;;;;;;13.03;7.90;;;21.00;97.30;;;;;;5051761;28;20414;-78
2021/09/11 08:49:10;;;;;;;16.73;8.47;;;21.00;97.30;;;;;;5052903;28;20425;-77
2021/09/11 08:51:36;;;;;;;13.17;8.10;;;21.10;97.30;;;;;;5053155;28;20164;-77
2021/09/11 08:54:02;;;;;;;12.40;7.50;;;21.20;97.30;;;;;;5038663;28;20557;-77
2021/09/11 08:56:27;;;;;;;16.40;8.53;;;21.20;97.30;;;;;;5040881;28;20299;-78
2021/09/11 08:59:10;;;;;;;15.60;7.93;;;21.30;97.30;;;;;;5033379;28;20204;-76
2021/09/11 09:01:36;;;;;;;13.60;8.13;;;21.30;97.30;;;;;;5032413;28;20188;-80
2021/09/11 09:04:02;;;;;;;14.37;7.27;;;21.30;97.30;;;;;;5015324;28;20920;-77
2021/09/11 09:06:30;;;;;;;16.13;8.60;;;21.30;97.30;;;;;;5031614;28;20484;-76
2021/09/11 09:09:12;;;;;;;11.50;6.97;;;21.40;97.30;;;;;;5043493;28;20418;-77
2021/09/11 09:11:42;;;;;;;10.97;8.10;;;21.50;97.30;;;;;;5052632;28;20461;-77
2021/09/11 09:14:15;;;;;;;9.43;6.40;;;21.60;97.30;;;;;;5052739;28;20426;-79
2021/09/11 09:16:52;;;;;;;11.40;7.40;;;21.70;97.30;;;;;;5053624;28;20502;-77
2021/09/11 09:19:25;;;;;;;12.27;7.37;;;21.90;97.30;;;;;;5051888;28;20430;-77
2021/09/11 09:22:01;;;;;;;9.83;7.73;;;21.90;97.30;;;;;;5052599;28;20428;-76
2021/09/11 09:24:36;;;;;;;12.00;7.90;;;22.10;97.30;;;;;;5031359;28;20474;-77
2021/09/11 09:27:05;;;;;;;11.57;7.37;;;22.20;97.30;;;;;;5032502;28;20489;-77
2021/09/11 09:29:35;;;;;;;9.80;6.23;;;22.40;97.30;;;;;;5034839;28;20433;-82
2021/09/11 09:32:02;;;;;;;9.93;6.10;;;22.50;97.30;;;;;;5051100;28;21019;-77
2021/09/11 09:34:36;;;;;;;8.10;5.87;;;22.50;97.30;;;;;;5051556;28;20406;-77
2021/09/11 09:37:08;;;;;;;7.73;5.37;;;22.50;97.30;;;;;;5051779;28;20452;-78
2021/09/11 09:39:39;;;;;;;9.07;6.23;;;22.50;97.30;;;;;;5034943;28;20798;-77
2021/09/11 09:42:05;;;;;;;7.30;5.63;;;22.60;97.30;;;;;;5036488;28;20835;-77
2021/09/11 09:44:46;;;;;;;7.00;4.90;;;22.60;97.30;;;;;;5036709;28;20497;-77
2021/09/11 09:47:17;;;;;;;9.37;5.73;;;22.70;97.30;;;;;;5054999;28;20653;-79
2021/09/11 09:50:02;;;;;;;7.70;5.30;;;22.70;97.30;;;;;;5039074;28;20960;-78
2021/09/11 09:52:29;;;;;;;6.60;5.13;;;22.90;97.30;;;;;;5036425;28;20584;-78
2021/09/11 09:54:56;;;;;;;6.10;3.90;;;23.10;97.30;;;;;;5059570;28;20417;-78
2021/09/11 09:57:22;;;;;;;7.87;4.63;;;23.20;97.30;;;;;;5069344;28;20479;-78
2021/09/11 09:59:50;;;;;;;9.50;5.03;;;23.40;97.30;;;;;;5055631;28;20414;-78
2021/09/11 10:02:16;;;;;;;8.10;4.97;;;23.50;97.30;;;;;;5054926;28;20982;-79
2021/09/11 10:04:41;;;;;;;9.30;5.20;;;23.70;97.30;;;;;;5055141;28;20470;-77
2021/09/11 10:07:09;;;;;;;6.53;4.53;;;23.90;97.30;;;;;;5061641;28;20206;-80
2021/09/11 10:09:36;;;;;;;5.53;4.10;;;24.00;97.30;;;;;;5061617;28;20175;-78
2021/09/11 10:12:02;;;;;;;4.40;3.53;;;24.10;97.30;;;;;;5052483;28;20429;-78
2021/09/11 10:14:33;;;;;;;7.53;3.83;;;24.20;97.30;;;;;;5055539;28;20426;-78
2021/09/11 10:17:03;;;;;;;7.13;4.67;;;24.30;97.30;;;;;;5050578;28;20419;-78
2021/09/11 10:19:32;;;;;;;8.90;4.20;;;24.30;97.30;;;;;;5052379;28;20438;-77
2021/09/11 10:22:18;;;;;;;4.70;3.60;;;24.30;96.30;;;;;;5044518;28;20435;-82
2021/09/11 10:24:58;;;;;;;4.60;3.67;;;24.40;96.30;;;;;;5039761;28;20458;-78
2021/09/11 10:27:31;;;;;;;7.83;3.80;;;24.50;97.00;;;;;;5047227;28;20421;-80
2021/09/11 10:29:57;;;;;;;7.10;4.33;;;24.50;97.00;;;;;;5054592;28;20781;-79
2021/09/11 10:32:38;;;;;;;6.70;4.50;;;24.60;96.80;;;;;;5045861;28;20426;-78
2021/09/11 10:35:20;;;;;;;5.63;4.70;;;24.60;96.30;;;;;;5054552;28;20955;-82
2021/09/11 10:37:46;;;;;;;5.63;4.20;;;24.60;96.00;;;;;;5053731;28;20550;-81
2021/09/11 10:40:30;;;;;;;7.23;4.83;;;24.70;96.70;;;;;;5053472;28;20438;-81
2021/09/11 10:42:59;;;;;;;6.63;5.00;;;24.80;96.70;;;;;;5057737;28;20449;-83
2021/09/11 10:45:53;;;;;;;5.60;4.23;;;25.00;96.80;;;;;;5055460;28;20426;-81
2021/09/11 10:48:42;;;;;;;5.77;4.27;;;25.00;95.50;;;;;;5052497;28;20425;-81
2021/09/11 10:51:23;;;;;;;5.40;3.83;;;25.00;95.20;;;;;;5040239;28;20422;-80
2021/09/11 10:54:03;;;;;;;5.33;4.00;;;24.80;96.00;;;;;;5046600;28;20847;-82
2021/09/11 10:56:31;;;;;;;5.77;4.30;;;24.70;96.20;;;;;;5049144;28;20441;-82
2021/09/11 10:59:15;;;;;;;5.87;4.00;;;24.50;96.50;;;;;;5053112;28;20430;-82
2021/09/11 11:02:00;;;;;;;4.30;4.00;;;24.30;96.90;;;;;;5046082;28;20419;-78
2021/09/11 11:04:48;;;;;;;4.97;3.60;;;24.10;97.30;;;;;;5041746;28;20548;-79
2021/09/11 11:07:20;;;;;;;4.70;3.33;;;24.00;97.30;;;;;;5034650;28;20407;-77
2021/09/11 11:09:50;;;;;;;4.83;3.47;;;23.90;97.30;;;;;;5048613;28;20428;-80
2021/09/11 11:12:22;;;;;;;4.30;3.30;;;24.00;97.30;;;;;;5051038;28;20470;-78
2021/09/11 11:14:47;;;;;;;3.50;2.70;;;24.30;97.30;;;;;;5054991;28;20426;-81
2021/09/11 11:17:18;;;;;;;3.67;2.50;;;24.40;97.30;;;;;;5050795;28;20505;-81
2021/09/11 11:19:47;;;;;;;3.13;2.80;;;24.40;96.70;;;;;;5044254;28;20168;-82
2021/09/11 11:22:16;;;;;;;4.60;2.80;;;24.30;96.10;;;;;;5048629;28;20443;-81
2021/09/11 11:24:45;;;;;;;2.90;2.70;;;24.30;97.10;;;;;;5050426;28;21027;-81
2021/09/11 11:27:20;;;;;;;3.40;3.00;;;24.30;97.00;;;;;;5054225;28;20427;-80
2021/09/11 11:29:48;;;;;;;3.37;2.90;;;24.30;96.80;;;;;;5046296;28;20416;-77
2021/09/11 11:32:14;;;;;;;5.37;2.97;;;24.30;96.60;;;;;;5054832;28;20434;-78
2021/09/11 11:34:40;;;;;;;2.87;2.43;;;24.30;96.10;;;;;;5054011;28;20434;-78
2021/09/11 11:37:09;;;;;;;3.83;2.90;;;24.30;96.50;;;;;;5051733;28;20434;-79
2021/09/11 11:39:41;;;;;;;2.77;2.60;;;24.30;96.00;;;;;;5050648;28;20457;-79
2021/09/11 11:42:12;;;;;;;4.80;2.67;;;24.50;95.60;;;;;;5058520;28;20466;-78
2021/09/11 11:44:45;;;;;;;2.57;2.20;;;24.70;94.70;;;;;;5056203;28;20501;-79
2021/09/11 11:47:25;;;;;;;5.00;2.53;;;24.90;94.10;;;;;;5059124;28;20433;-80
2021/09/11 11:49:51;;;;;;;2.87;2.57;;;25.20;93.80;;;;;;5063621;28;20430;-79
2021/09/11 11:52:20;;;;;;;2.87;2.27;;;25.40;93.10;;;;;;5069794;28;20456;-80
2021/09/11 11:54:48;;;;;;;3.10;2.33;;;25.60;92.50;;;;;;5052200;28;20423;-79
2021/09/11 11:57:16;;;;;;;4.30;2.07;;;25.60;91.00;;;;;;5055053;28;20497;-79
2021/09/11 11:59:44;;;;;;;4.33;2.33;;;25.70;92.00;;;;;;5062878;28;20907;-79
2021/09/11 12:02:21;;;;;;;2.33;2.20;;;25.80;91.90;;;;;;5060080;28;20470;-79
2021/09/11 12:04:48;;;;;;;3.10;2.40;;;26.10;91.30;;;;;;5049658;28;20466;-79
2021/09/11 12:07:31;;;;;;;2.77;2.40;;;26.30;91.30;;;;;;5050563;28;20452;-78
2021/09/11 12:10:01;;;;;;;4.17;2.57;;;26.40;89.60;;;;;;5055827;28;20901;-84
2021/09/11 12:12:48;;;;;;;3.10;2.27;;;26.50;88.80;;;;;;5051054;28;20455;-81
2021/09/11 12:15:17;;;;;;;2.67;1.97;;;26.50;88.20;;;;;;5037815;28;20977;-79
2021/09/11 12:17:57;;;;;;;2.93;2.73;;;26.60;88.00;;;;;;5043265;28;20454;-80
2021/09/11 12:20:24;;;;;;;3.13;2.50;;;26.60;87.20;;;;;;5034288;28;20437;-79
2021/09/11 12:23:28;;;;;;;3.30;2.30;;;26.40;85.60;;;;;;5039571;28;20789;-81
2021/09/11 12:25:56;;;;;;;3.33;2.57;;;26.40;87.90;;;;;;5024090;28;20937;-81
2021/09/11 12:28:42;;;;;;;4.03;2.60;;;26.50;89.00;;;;;;5055078;28;20415;-79
2021/09/11 12:31:08;;;;;;;6.10;2.63;;;26.70;86.40;;;;;;5047197;28;20505;-81
2021/09/11 12:33:48;;;;;;;3.03;2.60;;;26.80;86.60;;;;;;5053631;28;20504;-80
2021/09/11 12:36:36;;;;;;;4.20;3.10;;;26.70;86.50;;;;;;5040845;28;20187;-79